Time;durP1;ratioP1;P1;durP2;ratioP2;P2;SDS_P1;SDS_P2;PMS_P1;PMS_P2;Temp;Humidity;BMP_temperature;BMP_pressure;BME280_temperature;BME280_humidity;BME280_pressure;Samples;Min_cycle;Max_cycle;Signal;HPM_P1;HPM_P2
2022/10/20 00:00:17;;;;;;;0.30;0.30;;;9.80;99.90;;;;;;5150392;27;20047;-73
2022/10/20 00:02:43;;;;;;;0.00;0.00;;;9.80;99.90;;;;;;5148673;27;20210;-73
2022/10/20 00:05:08;;;;;;;0.10;0.10;;;9.70;99.90;;;;;;5145018;27;20045;-74
2022/10/20 00:07:34;;;;;;;0.68;0.57;;;9.70;99.90;;;;;;5151270;27;20046;-73
2022/10/20 00:09:59;;;;;;;0.20;0.20;;;9.60;99.90;;;;;;5148008;27;20079;-73
2022/10/20 00:12:25;;;;;;;0.10;0.10;;;9.60;99.90;;;;;;5139577;27;20084;-73
2022/10/20 00:14:50;;;;;;;0.10;0.10;;;9.60;99.90;;;;;;5144252;27;20055;-73
2022/10/20 00:17:16;;;;;;;0.08;0.08;;;9.60;99.90;;;;;;5129342;27;20045;-73
2022/10/20 00:19:42;;;;;;;1.48;0.90;;;9.60;99.90;;;;;;5126035;27;20054;-73
2022/10/20 00:22:07;;;;;;;0.20;0.20;;;9.50;99.90;;;;;;5141077;27;20055;-73
2022/10/20 00:24:33;;;;;;;0.10;0.10;;;9.60;99.90;;;;;;5140862;27;20031;-73
2022/10/20 00:26:58;;;;;;;0.10;0.10;;;9.40;99.90;;;;;;5138238;27;20394;-73
2022/10/20 00:29:24;;;;;;;0.13;0.13;;;9.50;99.90;;;;;;5146600;27;20424;-73
2022/10/20 00:31:49;;;;;;;0.17;0.17;;;9.50;99.90;;;;;;5144162;27;20043;-73
2022/10/20 00:34:15;;;;;;;0.20;0.20;;;9.50;99.90;;;;;;5140558;27;20498;-73
2022/10/20 00:36:40;;;;;;;0.10;0.10;;;9.40;99.90;;;;;;5136117;27;20580;-74
2022/10/20 00:39:06;;;;;;;0.63;0.63;;;9.40;99.90;;;;;;5129409;27;20120;-74
2022/10/20 00:41:32;;;;;;;1.13;0.95;;;9.40;99.90;;;;;;5135917;27;20074;-73
2022/10/20 00:44:00;;;;;;;0.00;0.00;;;9.40;99.90;;;;;;5144043;27;20039;-73
2022/10/20 00:46:32;;;;;;;0.20;0.20;;;9.30;99.90;;;;;;5129617;27;20042;-73
2022/10/20 00:49:05;;;;;;;0.10;0.10;;;9.30;99.90;;;;;;5132950;27;20091;-73
2022/10/20 00:51:32;;;;;;;0.10;0.10;;;9.20;99.90;;;;;;5113603;27;20076;-73
2022/10/20 00:54:05;;;;;;;0.30;0.30;;;9.30;99.90;;;;;;5144670;27;20046;-73
2022/10/20 00:56:31;;;;;;;;;;;9.20;99.90;;;;;;5134395;27;20138;-73
2022/10/20 00:58:57;;;;;;;1.35;0.82;;;9.10;99.90;;;;;;5131929;27;19923;-73
2022/10/20 01:01:23;;;;;;;0.22;0.22;;;9.10;99.90;;;;;;5135231;27;20043;-74
2022/10/20 01:03:50;;;;;;;0.10;0.10;;;9.20;99.90;;;;;;5132340;27;20043;-73
2022/10/20 01:06:18;;;;;;;0.10;0.10;;;9.20;99.90;;;;;;5121248;27;20508;-73
2022/10/20 01:08:44;;;;;;;0.32;0.32;;;9.10;99.90;;;;;;5136247;27;20193;-73
2022/10/20 01:11:28;;;;;;;0.25;0.25;;;9.10;99.90;;;;;;5143888;27;20138;-73
2022/10/20 01:14:06;;;;;;;;;;;9.10;99.90;;;;;;5136131;27;20074;-73
2022/10/20 01:16:40;;;;;;;0.10;0.10;;;9.10;99.90;;;;;;5134627;27;19926;-73
2022/10/20 01:19:42;;;;;;;0.10;0.10;;;9.00;99.90;;;;;;5131143;27;20047;-73
2022/10/20 01:22:32;;;;;;;0.10;0.10;;;9.00;99.90;;;;;;5134153;27;20042;-73
2022/10/20 01:25:25;;;;;;;0.10;0.10;;;9.00;99.90;;;;;;5143274;27;21031;-73
2022/10/20 01:27:57;;;;;;;0.10;0.10;;;9.00;99.90;;;;;;5136597;27;20098;-73
2022/10/20 01:30:23;;;;;;;0.10;0.10;;;9.00;99.90;;;;;;5139563;27;20046;-73
2022/10/20 01:33:12;;;;;;;0.10;0.10;;;9.00;99.90;;;;;;5140180;27;20500;-73
2022/10/20 01:35:53;;;;;;;0.15;0.15;;;9.00;99.90;;;;;;5138962;27;20035;-74
2022/10/20 01:38:34;;;;;;;0.00;0.00;;;9.00;99.90;;;;;;5140223;27;20046;-73
2022/10/20 01:41:20;;;;;;;0.15;0.15;;;8.90;99.90;;;;;;5125445;27;20055;-73
2022/10/20 01:43:47;;;;;;;0.10;0.10;;;8.90;99.90;;;;;;5147732;27;20039;-74
2022/10/20 01:46:15;;;;;;;0.10;0.10;;;8.90;99.90;;;;;;5119035;27;20047;-72
2022/10/20 01:48:41;;;;;;;0.45;0.35;;;8.90;99.90;;;;;;5135857;27;20406;-72
2022/10/20 01:51:08;;;;;;;0.10;0.10;;;8.90;99.90;;;;;;5151082;27;20034;-72
2022/10/20 01:53:34;;;;;;;0.20;0.20;;;8.90;99.90;;;;;;5148575;27;20054;-72
2022/10/20 01:56:01;;;;;;;0.10;0.10;;;8.90;99.90;;;;;;5141995;27;20046;-72
2022/10/20 01:58:51;;;;;;;1.08;1.08;;;8.90;99.90;;;;;;5151268;27;20505;-73
2022/10/20 02:01:31;;;;;;;0.10;0.10;;;8.80;99.90;;;;;;5152867;27;20046;-73
2022/10/20 02:04:00;;;;;;;0.00;0.00;;;8.80;99.90;;;;;;5142579;27;20047;-73
2022/10/20 02:06:40;;;;;;;0.10;0.10;;;8.80;99.90;;;;;;5149903;27;20156;-73
2022/10/20 02:09:11;;;;;;;0.13;0.13;;;8.80;99.90;;;;;;5141352;27;20043;-73
2022/10/20 02:12:00;;;;;;;0.65;0.65;;;8.80;99.90;;;;;;5146202;27;20058;-74
2022/10/20 02:14:26;;;;;;;0.10;0.10;;;8.70;99.90;;;;;;5138798;27;20138;-74
2022/10/20 02:16:56;;;;;;;0.05;0.05;;;8.70;99.90;;;;;;5121508;27;20129;-74
2022/10/20 02:19:27;;;;;;;0.15;0.15;;;8.60;99.90;;;;;;5148800;27;20035;-74
2022/10/20 02:21:55;;;;;;;0.47;0.47;;;8.60;99.90;;;;;;5142852;27;20138;-74
2022/10/20 02:24:24;;;;;;;0.10;0.10;;;8.60;99.90;;;;;;5149164;27;20046;-74
2022/10/20 02:26:52;;;;;;;0.05;0.05;;;8.70;99.90;;;;;;5136153;27;20463;-74
2022/10/20 02:29:23;;;;;;;0.28;0.28;;;8.70;99.90;;;;;;5134878;27;20118;-75
2022/10/20 02:31:49;;;;;;;0.10;0.10;;;8.60;99.90;;;;;;5146267;27;20053;-75
2022/10/20 02:34:15;;;;;;;0.15;0.15;;;8.60;99.90;;;;;;5146274;27;20039;-75
2022/10/20 02:36:42;;;;;;;0.10;0.10;;;8.60;99.90;;;;;;5149131;27;20043;-74
2022/10/20 02:39:09;;;;;;;0.10;0.10;;;8.60;99.90;;;;;;5136979;27;20521;-75
2022/10/20 02:41:35;;;;;;;0.00;0.00;;;8.60;99.90;;;;;;5150060;27;20083;-75
2022/10/20 02:44:01;;;;;;;0.10;0.10;;;8.60;99.90;;;;;;5148023;27;20043;-74
2022/10/20 02:46:26;;;;;;;0.00;0.00;;;8.50;99.90;;;;;;5129904;27;20054;-75
2022/10/20 02:48:52;;;;;;;0.10;0.10;;;8.60;99.90;;;;;;5142055;27;20039;-75
2022/10/20 02:51:18;;;;;;;0.10;0.10;;;8.50;99.90;;;;;;5150031;27;20442;-75
2022/10/20 02:53:44;;;;;;;0.10;0.10;;;8.50;99.90;;;;;;5143477;27;20031;-74
2022/10/20 02:56:10;;;;;;;1.85;0.88;;;8.60;99.90;;;;;;5136538;27;20050;-75
2022/10/20 02:58:35;;;;;;;0.10;0.10;;;8.50;99.90;;;;;;5116055;27;20030;-75
2022/10/20 03:01:02;;;;;;;0.10;0.10;;;8.50;99.90;;;;;;5137680;27;20106;-74
2022/10/20 03:03:27;;;;;;;0.03;0.03;;;8.50;99.90;;;;;;5125347;27;20172;-74
2022/10/20 03:05:53;;;;;;;0.10;0.10;;;8.50;99.90;;;;;;5149952;27;20130;-74
2022/10/20 03:08:19;;;;;;;0.15;0.15;;;8.50;99.90;;;;;;5139190;27;20494;-75
2022/10/20 03:10:44;;;;;;;0.80;0.65;;;8.40;99.90;;;;;;5142058;27;20402;-74
2022/10/20 03:13:10;;;;;;;0.10;0.10;;;8.50;99.90;;;;;;5127499;27;20917;-74
2022/10/20 03:15:36;;;;;;;0.90;0.30;;;8.40;99.90;;;;;;5143249;27;20138;-73
2022/10/20 03:18:02;;;;;;;0.10;0.10;;;8.40;99.90;;;;;;5128119;27;20165;-72
2022/10/20 03:20:28;;;;;;;0.10;0.10;;;8.40;99.90;;;;;;5138235;27;20109;-72
2022/10/20 03:22:53;;;;;;;0.10;0.10;;;8.40;99.90;;;;;;5153039;27;20056;-72
2022/10/20 03:25:19;;;;;;;0.40;0.40;;;8.40;99.90;;;;;;5129527;27;20047;-72
2022/10/20 03:27:45;;;;;;;0.10;0.10;;;8.40;99.90;;;;;;5146268;27;20122;-72
2022/10/20 03:30:10;;;;;;;0.22;0.22;;;8.40;99.90;;;;;;5122829;27;20489;-72
2022/10/20 03:32:36;;;;;;;0.10;0.10;;;8.40;99.90;;;;;;5143873;27;20401;-72
2022/10/20 03:35:02;;;;;;;0.55;0.55;;;8.40;99.90;;;;;;5138875;27;20398;-72
2022/10/20 03:37:27;;;;;;;0.10;0.10;;;8.40;99.90;;;;;;5149155;27;20042;-72
2022/10/20 03:39:53;;;;;;;0.45;0.45;;;8.40;99.90;;;;;;5143270;27;20046;-72
2022/10/20 03:42:18;;;;;;;0.20;0.20;;;8.40;99.90;;;;;;5118769;27;20053;-72
2022/10/20 03:44:44;;;;;;;0.10;0.10;;;8.30;99.90;;;;;;5151244;27;20057;-72
2022/10/20 03:47:11;;;;;;;0.10;0.10;;;8.40;99.90;;;;;;5128402;27;20057;-72
2022/10/20 03:49:37;;;;;;;0.10;0.10;;;8.40;99.90;;;;;;5146006;27;20030;-73
2022/10/20 03:52:03;;;;;;;0.10;0.10;;;8.40;99.90;;;;;;5124524;27;20043;-73
2022/10/20 03:54:29;;;;;;;0.10;0.10;;;8.40;99.90;;;;;;5143055;27;20494;-73
2022/10/20 03:56:55;;;;;;;0.10;0.10;;;8.40;99.90;;;;;;5153106;27;20045;-73
2022/10/20 03:59:20;;;;;;;0.20;0.20;;;8.50;99.90;;;;;;5149751;27;20066;-73
2022/10/20 04:01:46;;;;;;;0.10;0.10;;;8.40;99.90;;;;;;5150093;27;20054;-73
2022/10/20 04:04:12;;;;;;;0.00;0.00;;;8.40;99.90;;;;;;5135991;27;20055;-73
2022/10/20 04:06:38;;;;;;;0.52;0.52;;;8.40;99.90;;;;;;5147616;27;20046;-73
2022/10/20 04:09:04;;;;;;;0.65;0.57;;;8.40;99.90;;;;;;5138340;27;20050;-72
2022/10/20 04:11:30;;;;;;;0.05;0.05;;;8.30;99.90;;;;;;5148116;27;20481;-73
2022/10/20 04:13:56;;;;;;;0.30;0.30;;;8.40;99.90;;;;;;5148990;27;20043;-72
2022/10/20 04:16:22;;;;;;;0.00;0.00;;;8.40;99.90;;;;;;5136009;27;20038;-73
2022/10/20 04:18:50;;;;;;;0.32;0.32;;;8.40;99.90;;;;;;5151223;27;20041;-73
2022/10/20 04:21:15;;;;;;;0.10;0.10;;;8.40;99.90;;;;;;5138173;27;20046;-72
2022/10/20 04:23:41;;;;;;;0.10;0.10;;;8.40;99.90;;;;;;5140229;27;20042;-72
2022/10/20 04:26:11;;;;;;;0.10;0.10;;;8.40;99.90;;;;;;5141473;27;20046;-72
2022/10/20 04:28:37;;;;;;;0.28;0.28;;;8.30;99.90;;;;;;5126874;27;20122;-73
2022/10/20 04:31:03;;;;;;;0.00;0.00;;;8.40;99.90;;;;;;5133440;27;20168;-73
2022/10/20 04:33:28;;;;;;;0.10;0.10;;;8.40;99.90;;;;;;5141039;27;20035;-73
2022/10/20 04:36:03;;;;;;;0.05;0.05;;;8.40;99.90;;;;;;5141103;27;20054;-73
2022/10/20 04:38:29;;;;;;;0.10;0.10;;;8.40;99.90;;;;;;5139428;27;20035;-73
2022/10/20 04:41:00;;;;;;;2.90;1.10;;;8.40;99.90;;;;;;5150134;27;20401;-73
2022/10/20 04:43:26;;;;;;;0.30;0.30;;;8.40;99.90;;;;;;5144013;27;20390;-73
2022/10/20 04:45:57;;;;;;;0.10;0.10;;;8.30;99.90;;;;;;5134384;27;20047;-73
2022/10/20 04:48:23;;;;;;;0.08;0.08;;;8.30;99.90;;;;;;5143561;27;20046;-73
2022/10/20 04:50:59;;;;;;;0.10;0.10;;;8.30;99.90;;;;;;5129369;27;20046;-73
2022/10/20 04:53:25;;;;;;;0.10;0.10;;;8.20;99.90;;;;;;5138388;27;20094;-72
2022/10/20 04:55:55;;;;;;;0.10;0.10;;;8.30;99.90;;;;;;5150980;27;20031;-72
2022/10/20 04:58:21;;;;;;;0.10;0.10;;;8.30;99.90;;;;;;5118601;27;20049;-72
2022/10/20 05:00:47;;;;;;;1.00;0.90;;;8.30;99.90;;;;;;5136383;27;20058;-72
2022/10/20 05:03:12;;;;;;;0.10;0.10;;;8.40;99.90;;;;;;5147802;27;20059;-73
2022/10/20 05:05:38;;;;;;;0.10;0.10;;;8.40;99.90;;;;;;5149510;27;20047;-72
2022/10/20 05:08:04;;;;;;;0.65;0.57;;;8.30;99.90;;;;;;5150831;27;20042;-73
2022/10/20 05:10:29;;;;;;;0.10;0.10;;;8.30;99.90;;;;;;5148215;27;20047;-73
2022/10/20 05:12:55;;;;;;;0.20;0.20;;;8.30;99.90;;;;;;5142748;27;20049;-73
2022/10/20 05:15:20;;;;;;;0.25;0.25;;;8.30;99.90;;;;;;5128571;27;20050;-73
2022/10/20 05:17:46;;;;;;;13.15;1.48;;;8.40;99.90;;;;;;5137686;27;20039;-72
2022/10/20 05:20:11;;;;;;;0.30;0.30;;;8.40;99.90;;;;;;5145891;27;20443;-73
2022/10/20 05:22:37;;;;;;;0.10;0.10;;;8.40;99.90;;;;;;5122019;27;20378;-73
2022/10/20 05:25:03;;;;;;;0.10;0.10;;;8.40;99.90;;;;;;5146746;27;20149;-73
2022/10/20 05:27:28;;;;;;;0.30;0.30;;;8.30;99.90;;;;;;5137439;27;20118;-72
2022/10/20 05:29:54;;;;;;;0.10;0.10;;;8.30;99.90;;;;;;5140129;27;20114;-72
2022/10/20 05:32:20;;;;;;;0.10;0.10;;;8.30;99.90;;;;;;5147125;27;20100;-73
2022/10/20 05:34:45;;;;;;;0.28;0.28;;;8.20;99.90;;;;;;5142830;27;20386;-73
2022/10/20 05:37:11;;;;;;;0.55;0.55;;;8.20;99.90;;;;;;5149921;27;20427;-72
2022/10/20 05:39:36;;;;;;;0.20;0.20;;;8.30;99.90;;;;;;5145558;27;20035;-73
2022/10/20 05:42:02;;;;;;;0.20;0.20;;;8.20;99.90;;;;;;5141047;27;20035;-73
2022/10/20 05:44:27;;;;;;;0.10;0.10;;;8.20;99.90;;;;;;5124614;27;20078;-73
2022/10/20 05:46:53;;;;;;;0.17;0.17;;;8.20;99.90;;;;;;5141294;27;20098;-72
2022/10/20 05:49:21;;;;;;;0.20;0.20;;;8.20;99.90;;;;;;5142037;27;20492;-72
2022/10/20 05:51:46;;;;;;;0.25;0.25;;;8.10;99.90;;;;;;5150859;27;20074;-72
2022/10/20 05:54:13;;;;;;;0.13;0.13;;;8.10;99.90;;;;;;5144318;27;20067;-72
2022/10/20 05:56:39;;;;;;;0.10;0.10;;;8.10;99.90;;;;;;5153789;27;20054;-72
2022/10/20 05:59:04;;;;;;;0.10;0.10;;;8.10;99.90;;;;;;5144770;27;20386;-72
2022/10/20 06:01:46;;;;;;;0.30;0.30;;;8.10;99.90;;;;;;5142698;27;20080;-72
2022/10/20 06:04:12;;;;;;;0.60;0.60;;;8.10;99.90;;;;;;5135045;27;20051;-73
2022/10/20 06:06:38;;;;;;;0.10;0.10;;;8.10;99.90;;;;;;5144912;27;20413;-73
2022/10/20 06:09:06;;;;;;;0.65;0.65;;;8.20;99.90;;;;;;5154568;27;20042;-72
2022/10/20 06:11:31;;;;;;;0.10;0.10;;;8.20;99.90;;;;;;5133487;27;20051;-72
2022/10/20 06:13:57;;;;;;;0.10;0.10;;;8.10;99.90;;;;;;5145274;27;20367;-72
2022/10/20 06:16:26;;;;;;;0.30;0.30;;;8.10;99.90;;;;;;5142598;27;20035;-72
2022/10/20 06:18:52;;;;;;;0.30;0.30;;;8.20;99.90;;;;;;5145612;27;20061;-72
2022/10/20 06:21:20;;;;;;;0.38;0.38;;;8.10;99.90;;;;;;5145108;27;20066;-72
2022/10/20 06:23:46;;;;;;;0.55;0.55;;;8.20;99.90;;;;;;5142481;27;20038;-72
2022/10/20 06:26:17;;;;;;;0.30;0.30;;;8.20;99.90;;;;;;5151424;27;20081;-72
2022/10/20 06:28:45;;;;;;;0.10;0.10;;;8.20;99.90;;;;;;5144888;27;20035;-72
2022/10/20 06:31:11;;;;;;;0.10;0.10;;;8.20;99.90;;;;;;5140672;27;20035;-72
2022/10/20 06:33:37;;;;;;;1.17;0.80;;;8.20;99.90;;;;;;5137338;27;20070;-72
2022/10/20 06:36:02;;;;;;;0.10;0.10;;;8.20;99.90;;;;;;5148196;27;20607;-72
2022/10/20 06:38:28;;;;;;;0.10;0.10;;;8.20;99.90;;;;;;5153815;27;20041;-72
2022/10/20 06:40:54;;;;;;;1.10;1.00;;;8.30;99.90;;;;;;5151840;27;20054;-72
2022/10/20 06:43:20;;;;;;;0.55;0.55;;;8.30;99.90;;;;;;5147872;27;20057;-71
2022/10/20 06:45:56;;;;;;;0.10;0.10;;;8.30;99.90;;;;;;5151300;27;20042;-72
2022/10/20 06:48:21;;;;;;;0.52;0.52;;;8.30;99.90;;;;;;5123282;27;20047;-72
2022/10/20 06:50:47;;;;;;;0.10;0.10;;;8.40;99.90;;;;;;5147285;27;20052;-72
2022/10/20 06:53:12;;;;;;;0.20;0.20;;;8.40;99.90;;;;;;5140716;27;20073;-72
2022/10/20 06:55:38;;;;;;;0.10;0.10;;;8.40;99.90;;;;;;5141276;27;20031;-72
2022/10/20 06:58:04;;;;;;;2.35;1.38;;;8.40;99.90;;;;;;5144993;27;20049;-73
2022/10/20 07:00:29;;;;;;;1.33;0.68;;;8.50;99.90;;;;;;5150906;27;20088;-73
2022/10/20 07:02:55;;;;;;;0.30;0.30;;;8.50;99.90;;;;;;5149631;27;20061;-73
2022/10/20 07:05:20;;;;;;;1.50;0.85;;;8.50;99.90;;;;;;5141616;27;20130;-73
2022/10/20 07:07:46;;;;;;;0.10;0.10;;;8.50;99.90;;;;;;5118152;27;20051;-72
2022/10/20 07:10:12;;;;;;;0.28;0.28;;;8.60;99.90;;;;;;5142206;27;20034;-70
2022/10/20 07:12:38;;;;;;;0.10;0.10;;;8.60;99.90;;;;;;5140077;27;20047;-72
2022/10/20 07:15:04;;;;;;;0.10;0.10;;;8.60;99.90;;;;;;5121092;27;20090;-70
2022/10/20 07:17:30;;;;;;;0.10;0.10;;;8.70;99.90;;;;;;5149110;27;20042;-70
2022/10/20 07:19:56;;;;;;;0.93;0.75;;;8.60;99.90;;;;;;5143858;27;20043;-70
2022/10/20 07:22:21;;;;;;;0.10;0.10;;;8.60;99.90;;;;;;5140829;27;20034;-72
2022/10/20 07:24:47;;;;;;;1.55;1.15;;;8.70;99.90;;;;;;5146841;27;20599;-71
2022/10/20 07:27:12;;;;;;;0.20;0.20;;;8.70;99.90;;;;;;5142318;27;20051;-74
2022/10/20 07:29:38;;;;;;;0.38;0.38;;;8.70;99.90;;;;;;5141523;27;20138;-74
2022/10/20 07:32:03;;;;;;;0.20;0.20;;;8.70;99.90;;;;;;5145331;27;20057;-75
2022/10/20 07:34:29;;;;;;;0.30;0.30;;;8.70;99.90;;;;;;5137172;27;20049;-74
2022/10/20 07:36:55;;;;;;;0.17;0.17;;;8.80;99.90;;;;;;5123728;27;20047;-74
2022/10/20 07:39:21;;;;;;;0.10;0.10;;;8.80;99.90;;;;;;5142353;27;20430;-74
2022/10/20 07:41:47;;;;;;;0.30;0.30;;;8.90;99.90;;;;;;5151304;27;20494;-73
2022/10/20 07:44:13;;;;;;;2.50;1.48;;;8.80;99.90;;;;;;5134016;27;20031;-74
2022/10/20 07:46:38;;;;;;;1.17;1.08;;;8.90;99.90;;;;;;5142434;27;20550;-73
2022/10/20 07:49:04;;;;;;;0.25;0.25;;;8.90;99.90;;;;;;5122117;27;20047;-74
2022/10/20 07:51:31;;;;;;;0.30;0.30;;;9.00;99.90;;;;;;5133922;27;20402;-74
2022/10/20 07:54:07;;;;;;;0.10;0.10;;;9.00;99.90;;;;;;5138083;27;20065;-73
2022/10/20 07:56:39;;;;;;;1.30;0.95;;;9.10;99.90;;;;;;5141629;27;20039;-74
2022/10/20 07:59:05;;;;;;;0.10;0.10;;;9.20;99.90;;;;;;5143738;27;20062;-73
2022/10/20 08:01:31;;;;;;;0.20;0.20;;;9.20;99.90;;;;;;5143545;27;20066;-74
2022/10/20 08:03:57;;;;;;;0.15;0.15;;;9.20;99.90;;;;;;5144632;27;20466;-71
2022/10/20 08:06:23;;;;;;;3.03;1.45;;;9.20;99.90;;;;;;5140298;27;20053;-71
2022/10/20 08:08:48;;;;;;;0.30;0.30;;;9.20;99.90;;;;;;5148609;27;20042;-71
2022/10/20 08:11:14;;;;;;;0.57;0.57;;;9.30;99.90;;;;;;5141997;27;20046;-73
2022/10/20 08:13:41;;;;;;;10.13;1.95;;;9.30;99.90;;;;;;5132887;27;20574;-73
2022/10/20 08:16:08;;;;;;;0.50;0.50;;;9.40;99.90;;;;;;5144946;27;20034;-73
2022/10/20 08:18:34;;;;;;;0.40;0.30;;;9.40;99.90;;;;;;5128517;27;20054;-72
2022/10/20 08:21:14;;;;;;;0.80;0.80;;;9.40;99.90;;;;;;5152040;27;20055;-73
2022/10/20 08:23:41;;;;;;;1.17;0.63;;;9.40;99.90;;;;;;5141397;27;20047;-71
2022/10/20 08:26:08;;;;;;;0.15;0.15;;;9.50;99.90;;;;;;5136989;27;20062;-73
2022/10/20 08:28:34;;;;;;;0.63;0.63;;;9.50;99.90;;;;;;5114966;27;20047;-73
2022/10/20 08:31:06;;;;;;;0.40;0.40;;;9.60;99.90;;;;;;5135320;27;20482;-74
2022/10/20 08:33:32;;;;;;;0.47;0.47;;;9.60;99.90;;;;;;5148589;27;20038;-74
2022/10/20 08:36:07;;;;;;;0.73;0.73;;;9.70;99.90;;;;;;5143861;27;20035;-74
2022/10/20 08:38:34;;;;;;;0.32;0.32;;;9.80;99.90;;;;;;5134347;27;20138;-75
2022/10/20 08:41:00;;;;;;;0.08;0.08;;;9.80;99.90;;;;;;5145838;27;20049;-74
2022/10/20 08:43:29;;;;;;;0.08;0.08;;;9.80;99.90;;;;;;5139547;27;20045;-74
2022/10/20 08:45:54;;;;;;;0.10;0.10;;;9.90;99.90;;;;;;5112364;27;20050;-74
2022/10/20 08:48:25;;;;;;;0.43;0.43;;;9.90;99.90;;;;;;5136390;27;20050;-73
2022/10/20 08:50:52;;;;;;;1.05;0.93;;;10.00;99.90;;;;;;5149882;27;20022;-74
2022/10/20 08:53:20;;;;;;;0.20;0.20;;;10.00;99.90;;;;;;5131516;27;20408;-74
2022/10/20 08:55:46;;;;;;;0.10;0.10;;;10.10;99.90;;;;;;5146806;27;20389;-74
2022/10/20 08:58:18;;;;;;;0.20;0.20;;;10.10;99.90;;;;;;5144662;27;20478;-75
2022/10/20 09:00:44;;;;;;;0.40;0.40;;;10.10;99.90;;;;;;5138921;27;20607;-74
2022/10/20 09:03:13;;;;;;;0.10;0.10;;;10.10;99.90;;;;;;5140344;27;20054;-74
2022/10/20 09:05:42;;;;;;;0.15;0.15;;;10.30;99.90;;;;;;5125601;27;20096;-74
2022/10/20 09:08:08;;;;;;;0.32;0.32;;;10.30;99.90;;;;;;5138942;27;20035;-74
2022/10/20 09:10:35;;;;;;;0.10;0.10;;;10.40;99.90;;;;;;5124606;27;20091;-75
2022/10/20 09:13:02;;;;;;;0.10;0.10;;;10.40;99.90;;;;;;5148961;27;20494;-74
2022/10/20 09:15:28;;;;;;;0.20;0.20;;;10.40;99.90;;;;;;5147059;27;20027;-74
2022/10/20 09:17:59;;;;;;;0.73;0.73;;;10.60;99.90;;;;;;5136597;27;20099;-74
2022/10/20 09:20:32;;;;;;;0.20;0.20;;;10.60;99.90;;;;;;5134032;27;20134;-73
2022/10/20 09:22:58;;;;;;;0.15;0.15;;;10.60;99.90;;;;;;5140076;27;20050;-73
2022/10/20 09:25:26;;;;;;;0.38;0.38;;;10.80;99.90;;;;;;5132936;27;20138;-73
2022/10/20 09:27:53;;;;;;;0.47;0.47;;;10.70;99.90;;;;;;5137842;27;20042;-73
2022/10/20 09:30:24;;;;;;;0.20;0.20;;;10.80;99.90;;;;;;5143969;27;20035;-73
2022/10/20 09:32:50;;;;;;;0.77;0.77;;;11.20;99.90;;;;;;5150281;27;20430;-74
2022/10/20 09:35:34;;;;;;;0.10;0.10;;;11.70;99.90;;;;;;5133531;27;20448;-74
2022/10/20 09:38:09;;;;;;;1.65;1.55;;;12.20;99.90;;;;;;5137143;27;20091;-74
2022/10/20 09:40:35;;;;;;;0.38;0.38;;;12.50;99.90;;;;;;5138512;27;20502;-74
2022/10/20 09:43:09;;;;;;;0.15;0.15;;;12.50;99.90;;;;;;5144472;27;20080;-75
2022/10/20 09:45:36;;;;;;;;;;;12.50;99.90;;;;;;5142801;27;20054;-74
2022/10/20 09:48:15;;;;;;;0.15;0.15;;;12.50;99.90;;;;;;5146224;27;20002;-74
2022/10/20 09:50:46;;;;;;;0.10;0.10;;;12.60;99.90;;;;;;5144322;27;20042;-74
2022/10/20 09:53:24;;;;;;;0.20;0.20;;;12.70;99.90;;;;;;5133161;27;20127;-74
2022/10/20 09:55:50;;;;;;;0.28;0.28;;;12.50;99.90;;;;;;5139163;27;20046;-74
2022/10/20 09:58:27;;;;;;;0.10;0.10;;;12.50;99.90;;;;;;5139412;27;20039;-73
2022/10/20 10:01:18;;;;;;;0.10;0.10;;;12.50;99.90;;;;;;5137125;27;20088;-74
2022/10/20 10:03:46;;;;;;;1.88;1.40;;;12.50;99.90;;;;;;5136566;27;20069;-74
2022/10/20 10:06:36;;;;;;;0.10;0.10;;;12.40;99.90;;;;;;5141618;27;20043;-74
2022/10/20 10:09:27;;;;;;;0.10;0.10;;;12.40;99.90;;;;;;5129550;27;20055;-74
2022/10/20 10:11:58;;;;;;;0.10;0.10;;;12.30;99.90;;;;;;5137816;27;20087;-74
2022/10/20 10:14:24;;;;;;;0.10;0.10;;;12.30;99.90;;;;;;5128866;27;20083;-74
2022/10/20 10:16:50;;;;;;;0.55;0.55;;;12.30;99.90;;;;;;5153051;27;20038;-74
2022/10/20 10:19:19;;;;;;;0.60;0.60;;;12.40;99.90;;;;;;5154881;27;20123;-74
2022/10/20 10:21:50;;;;;;;0.10;0.10;;;12.30;99.90;;;;;;5148349;27;20099;-74
2022/10/20 10:24:39;;;;;;;0.43;0.43;;;12.40;99.90;;;;;;5147234;27;20043;-74
2022/10/20 10:27:24;;;;;;;0.20;0.20;;;12.40;99.90;;;;;;5144062;27;20042;-74
2022/10/20 10:29:49;;;;;;;0.10;0.10;;;12.50;99.90;;;;;;5148433;27;20072;-74
2022/10/20 10:32:21;;;;;;;1.33;0.63;;;12.60;99.90;;;;;;5147986;27;20050;-74
2022/10/20 10:35:09;;;;;;;0.10;0.10;;;12.70;99.90;;;;;;5130138;27;20068;-74
2022/10/20 10:37:37;;;;;;;0.05;0.05;;;12.80;99.90;;;;;;5139374;27;20058;-75
2022/10/20 10:40:12;;;;;;;0.10;0.10;;;12.70;99.90;;;;;;5145418;27;20536;-74
2022/10/20 10:42:52;;;;;;;0.47;0.47;;;12.70;99.90;;;;;;5147562;27;20163;-75
2022/10/20 10:45:42;;;;;;;0.63;0.63;;;12.70;99.90;;;;;;5130406;27;20554;-75
2022/10/20 10:48:45;;;;;;;0.10;0.10;;;12.80;99.90;;;;;;5142604;27;20039;-74
2022/10/20 10:51:30;;;;;;;0.57;0.35;;;12.80;99.90;;;;;;5147580;27;20047;-74
2022/10/20 10:54:34;;;;;;;0.57;0.57;;;12.90;99.90;;;;;;5136229;27;20050;-74
2022/10/20 10:57:12;;;;;;;0.10;0.10;;;12.90;99.90;;;;;;5124740;27;20181;-74
2022/10/20 10:59:42;;;;;;;0.38;0.38;;;12.90;99.90;;;;;;5147393;27;20051;-74
2022/10/20 11:02:35;;;;;;;0.52;0.52;;;12.90;99.90;;;;;;5119793;27;20130;-74
2022/10/20 11:05:21;;;;;;;0.17;0.17;;;12.90;99.90;;;;;;5125172;27;20122;-75
2022/10/20 11:08:17;;;;;;;0.38;0.38;;;12.90;99.90;;;;;;5124612;27;20043;-75
2022/10/20 11:11:01;;;;;;;0.77;0.77;;;13.00;99.90;;;;;;5114507;27;20548;-75
2022/10/20 11:14:07;;;;;;;0.43;0.43;;;13.00;99.90;;;;;;5129540;27;20052;-74
2022/10/20 11:16:46;;;;;;;4.00;1.65;;;13.00;99.90;;;;;;5114835;27;20050;-75
2022/10/20 11:19:36;;;;;;;0.25;0.25;;;13.00;99.90;;;;;;5120519;27;20046;-74
2022/10/20 11:22:31;;;;;;;0.20;0.20;;;13.00;99.90;;;;;;5129579;27;20099;-74
2022/10/20 11:25:11;;;;;;;1.20;1.10;;;13.00;99.90;;;;;;5122046;27;20055;-75
2022/10/20 11:27:37;;;;;;;10.50;1.38;;;13.00;99.90;;;;;;5122497;27;20429;-75
2022/10/20 11:30:18;;;;;;;0.30;0.30;;;13.00;99.90;;;;;;5123171;27;20479;-75
2022/10/20 11:33:04;;;;;;;0.20;0.20;;;13.00;99.90;;;;;;5117315;27;20367;-75
2022/10/20 11:35:42;;;;;;;0.20;0.20;;;13.00;99.90;;;;;;5130418;27;20508;-76
2022/10/20 11:38:34;;;;;;;2.30;1.35;;;13.00;99.90;;;;;;5110905;27;20552;-75
2022/10/20 11:41:07;;;;;;;0.20;0.20;;;12.90;99.90;;;;;;5124504;27;20051;-76
2022/10/20 11:43:41;;;;;;;0.10;0.10;;;12.90;99.90;;;;;;5111833;27;20036;-75
2022/10/20 11:46:36;;;;;;;0.43;0.43;;;12.90;99.90;;;;;;5113793;27;20047;-75
2022/10/20 11:49:03;;;;;;;29.70;1.45;;;12.90;99.90;;;;;;5098601;27;20466;-74
2022/10/20 11:51:28;;;;;;;0.20;0.20;;;12.80;99.90;;;;;;5118989;27;20074;-74
2022/10/20 11:54:09;;;;;;;0.10;0.10;;;12.80;99.90;;;;;;5124977;27;20075;-74
2022/10/20 11:57:12;;;;;;;0.10;0.10;;;12.80;99.90;;;;;;5110141;27;20124;-74
2022/10/20 12:00:03;;;;;;;0.20;0.20;;;12.80;99.90;;;;;;5108927;27;20043;-74
2022/10/20 12:03:06;;;;;;;0.15;0.15;;;12.80;99.90;;;;;;5121971;27;20071;-75
2022/10/20 12:06:11;;;;;;;0.10;0.10;;;12.80;99.90;;;;;;5130521;27;20051;-74
2022/10/20 12:08:52;;;;;;;0.10;0.10;;;12.70;99.90;;;;;;5074004;27;20059;-74
2022/10/20 12:11:40;;;;;;;0.30;0.30;;;12.80;99.90;;;;;;5141557;27;20078;-75
2022/10/20 12:14:14;;;;;;;0.20;0.20;;;12.80;99.90;;;;;;5151895;27;20046;-75
2022/10/20 12:16:52;;;;;;;0.98;0.38;;;12.80;99.90;;;;;;5143447;27;20402;-75
2022/10/20 12:19:21;;;;;;;1.42;1.33;;;12.70;99.90;;;;;;5123349;27;20050;-75
2022/10/20 12:21:57;;;;;;;0.10;0.10;;;12.70;99.90;;;;;;5152141;27;20114;-75
2022/10/20 12:24:40;;;;;;;0.73;0.73;;;12.70;99.90;;;;;;5144765;27;20111;-75
2022/10/20 12:27:09;;;;;;;0.13;0.13;;;12.70;99.90;;;;;;5136391;27;20049;-75
2022/10/20 12:29:35;;;;;;;0.28;0.28;;;12.70;99.90;;;;;;5119045;27;20133;-75
2022/10/20 12:32:25;;;;;;;0.10;0.10;;;12.70;99.90;;;;;;5131232;27;20125;-75
2022/10/20 12:34:54;;;;;;;10.02;0.60;;;12.60;99.90;;;;;;5138784;27;20050;-76
2022/10/20 12:37:25;;;;;;;0.40;0.40;;;12.60;99.90;;;;;;5141727;27;20039;-75
2022/10/20 12:39:58;;;;;;;0.70;0.55;;;12.60;99.90;;;;;;5146869;27;20092;-76
2022/10/20 12:42:32;;;;;;;1.20;0.88;;;12.50;99.90;;;;;;5138522;27;20043;-76
2022/10/20 12:45:22;;;;;;;0.65;0.65;;;12.50;99.90;;;;;;5142065;27;20118;-76
2022/10/20 12:47:57;;;;;;;4.55;1.25;;;12.50;99.90;;;;;;5144881;27;20107;-76
2022/10/20 12:50:46;;;;;;;2.75;1.77;;;12.40;99.90;;;;;;5139170;27;20153;-76
2022/10/20 12:53:16;;;;;;;0.45;0.45;;;12.40;99.90;;;;;;5114464;27;20428;-76
2022/10/20 12:55:45;;;;;;;1.70;1.08;;;12.40;99.90;;;;;;5133613;27;20043;-76
2022/10/20 12:58:17;;;;;;;1.10;0.82;;;12.40;99.90;;;;;;5129372;27;20474;-76
2022/10/20 13:00:45;;;;;;;0.25;0.25;;;12.40;99.90;;;;;;5136858;27;20102;-76
2022/10/20 13:03:32;;;;;;;0.20;0.20;;;12.30;99.90;;;;;;5144738;27;20143;-73
2022/10/20 13:05:59;;;;;;;0.10;0.10;;;12.30;99.90;;;;;;5128004;27;20479;-73
2022/10/20 13:08:34;;;;;;;0.38;0.38;;;12.30;99.90;;;;;;5132929;27;20043;-73
2022/10/20 13:11:44;;;;;;;0.10;0.10;;;12.30;99.90;;;;;;5119930;27;20038;-71
2022/10/20 13:14:29;;;;;;;0.20;0.20;;;12.30;99.90;;;;;;5116248;27;20138;-75